Time;durP1;ratioP1;P1;durP2;ratioP2;P2;SDS_P1;SDS_P2;PMS_P1;PMS_P2;Temp;Humidity;BMP_temperature;BMP_pressure;BME280_temperature;BME280_humidity;BME280_pressure;Samples;Min_cycle;Max_cycle;Signal;HPM_P1;HPM_P2
2023/02/08 02:04:07;;;;;;;2.10;2.00;;;-2.30;99.90;;;;;;6068367;23;20483;-77
2023/02/08 02:06:39;;;;;;;2.15;2.05;;;-2.30;99.10;;;;;;6121050;23;20387;-78
2023/02/08 02:09:14;;;;;;;2.17;2.08;;;-2.30;97.80;;;;;;6122399;23;20402;-77
2023/02/08 02:11:42;;;;;;;1.98;1.88;;;-2.30;96.80;;;;;;6121114;23;20823;-77
2023/02/08 02:14:10;;;;;;;2.20;2.10;;;-2.30;96.20;;;;;;6094564;23;20794;-78
2023/02/08 02:16:37;;;;;;;1.98;1.88;;;-2.40;95.80;;;;;;6121509;23;20384;-77
2023/02/08 02:19:09;;;;;;;1.90;1.80;;;-2.50;95.60;;;;;;6122266;23;20375;-77
2023/02/08 02:22:12;;;;;;;2.20;2.10;;;-2.60;95.70;;;;;;6121580;23;20859;-77
2023/02/08 02:24:59;;;;;;;1.70;1.70;;;-2.80;96.60;;;;;;6121597;23;20379;-77
2023/02/08 02:27:36;;;;;;;2.17;2.08;;;-2.80;97.80;;;;;;6122178;23;20391;-78
2023/02/08 02:30:28;;;;;;;1.80;1.70;;;-2.80;97.20;;;;;;6122089;23;20356;-78
2023/02/08 02:33:23;;;;;;;1.70;1.67;;;-2.80;96.50;;;;;;6096218;23;20376;-77
2023/02/08 02:36:06;;;;;;;1.88;1.77;;;-2.80;95.50;;;;;;6096102;23;20790;-77
2023/02/08 02:39:04;;;;;;;1.90;1.80;;;-2.80;95.50;;;;;;6121642;23;20375;-77
2023/02/08 02:45:03;;;;;;;1.80;1.75;;;-2.80;94.80;;;;;;6084424;23;20443;-77
2023/02/08 02:47:33;;;;;;;1.98;1.88;;;-2.80;95.40;;;;;;6095620;23;20384;-77
2023/02/08 02:50:14;;;;;;;2.10;2.00;;;-2.80;96.40;;;;;;6096703;23;20391;-78
2023/02/08 02:53:08;;;;;;;2.05;1.95;;;-2.90;96.80;;;;;;6095188;23;20448;-77
2023/02/08 02:55:43;;;;;;;1.77;1.67;;;-2.90;97.20;;;;;;6096031;23;20404;-77
2023/02/08 02:58:12;;;;;;;1.85;1.75;;;-3.00;97.70;;;;;;6122231;23;20402;-77
2023/02/08 03:00:39;;;;;;;2.03;1.92;;;-3.00;96.60;;;;;;6095229;23;20371;-77
2023/02/08 03:03:20;;;;;;;1.50;1.50;;;-3.00;96.10;;;;;;6104061;23;20384;-77
2023/02/08 03:05:48;;;;;;;2.20;2.10;;;-3.00;96.90;;;;;;6066367;23;20753;-77
2023/02/08 03:08:23;;;;;;;1.90;1.80;;;-3.00;97.60;;;;;;6092423;23;20409;-77
2023/02/08 03:11:03;;;;;;;2.00;1.90;;;-3.10;97.70;;;;;;6067430;23;20405;-76
2023/02/08 03:13:42;;;;;;;1.73;1.63;;;-3.10;96.70;;;;;;6092339;23;20885;-77
2023/02/08 03:16:18;;;;;;;2.10;2.00;;;-3.10;96.30;;;;;;6092568;23;20448;-77
2023/02/08 03:19:10;;;;;;;1.83;1.73;;;-3.10;95.70;;;;;;6090394;23;20385;-77
2023/02/08 03:21:42;;;;;;;1.60;1.60;;;-3.10;95.10;;;;;;6092448;23;20409;-77
2023/02/08 03:24:21;;;;;;;2.08;1.98;;;-3.10;95.90;;;;;;6092402;23;20378;-77
2023/02/08 03:27:14;;;;;;;2.00;1.90;;;-3.10;95.30;;;;;;6067175;23;20448;-75
2023/02/08 03:29:57;;;;;;;1.88;1.77;;;-3.10;95.50;;;;;;6091703;23;20401;-76
2023/02/08 03:32:51;;;;;;;1.90;1.80;;;-3.20;96.40;;;;;;6092695;23;20377;-75
2023/02/08 03:35:28;;;;;;;2.10;2.00;;;-3.20;96.40;;;;;;6091955;23;20429;-75
2023/02/08 03:38:09;;;;;;;2.20;2.10;;;-3.20;96.90;;;;;;6067471;23;20385;-76
2023/02/08 03:40:44;;;;;;;2.03;1.92;;;-3.30;97.30;;;;;;6092682;23;20382;-75
2023/02/08 03:43:47;;;;;;;2.22;2.13;;;-3.40;97.70;;;;;;6091410;23;20441;-76
2023/02/08 03:46:24;;;;;;;2.10;2.00;;;-3.40;98.00;;;;;;6063238;23;20738;-75
2023/02/08 03:48:58;;;;;;;2.40;2.30;;;-3.50;97.60;;;;;;6092746;23;20377;-75
2023/02/08 03:51:27;;;;;;;1.92;1.83;;;-3.60;99.00;;;;;;6066670;23;20374;-75
2023/02/08 03:53:56;;;;;;;1.95;1.85;;;-3.60;98.60;;;;;;6067631;23;20425;-75
2023/02/08 03:56:43;;;;;;;1.73;1.70;;;-3.60;98.20;;;;;;6091461;23;20679;-75
2023/02/08 03:59:20;;;;;;;2.00;1.90;;;-3.60;97.50;;;;;;6090413;23;20389;-75
2023/02/08 04:01:56;;;;;;;1.98;1.88;;;-3.60;96.60;;;;;;6067146;23;20380;-75
2023/02/08 04:04:25;;;;;;;2.13;2.03;;;-3.60;96.00;;;;;;6090591;23;20405;-74
2023/02/08 04:06:52;;;;;;;2.08;1.98;;;-3.60;96.50;;;;;;6094561;23;20845;-76
2023/02/08 04:09:19;;;;;;;2.10;2.00;;;-3.60;97.00;;;;;;6093865;23;20417;-75
2023/02/08 04:11:46;;;;;;;2.00;1.90;;;-3.60;97.40;;;;;;6094295;23;20986;-75
2023/02/08 04:14:13;;;;;;;1.80;1.70;;;-3.60;98.50;;;;;;6093302;23;20401;-75
2023/02/08 04:16:39;;;;;;;2.20;2.10;;;-3.60;98.20;;;;;;6094143;23;20381;-75
2023/02/08 04:19:06;;;;;;;2.20;2.10;;;-3.60;97.90;;;;;;6092966;23;20408;-76
2023/02/08 04:21:33;;;;;;;2.10;2.00;;;-3.70;97.50;;;;;;6094505;23;20429;-75
2023/02/08 04:24:00;;;;;;;2.30;2.20;;;-3.70;98.40;;;;;;6094081;23;20865;-75
2023/02/08 04:26:27;;;;;;;2.15;2.05;;;-3.70;99.90;;;;;;6093800;23;20833;-76
2023/02/08 04:28:54;;;;;;;2.20;2.10;;;-3.80;99.90;;;;;;6094016;23;20469;-75
2023/02/08 04:31:20;;;;;;;2.15;2.05;;;-3.80;99.90;;;;;;6093171;23;20488;-75
2023/02/08 04:33:48;;;;;;;2.17;2.08;;;-3.80;99.90;;;;;;6093194;23;20405;-75
2023/02/08 04:36:14;;;;;;;2.28;2.17;;;-3.80;99.90;;;;;;6093060;23;20416;-75
2023/02/08 04:38:41;;;;;;;2.22;2.13;;;-3.80;99.90;;;;;;6093633;23;20389;-75
2023/02/08 04:41:08;;;;;;;2.60;2.45;;;-3.80;99.90;;;;;;6093113;23;20382;-76
2023/02/08 04:43:35;;;;;;;2.28;2.17;;;-3.90;99.90;;;;;;6068334;23;20394;-75
2023/02/08 04:46:03;;;;;;;2.50;2.40;;;-3.80;99.90;;;;;;6068835;23;20735;-75
2023/02/08 04:48:30;;;;;;;1.98;1.88;;;-3.80;99.90;;;;;;6067908;23;20377;-75
2023/02/08 04:50:57;;;;;;;2.20;2.10;;;-3.80;99.90;;;;;;6068651;23;20382;-76
2023/02/08 04:53:25;;;;;;;2.17;2.08;;;-3.90;99.90;;;;;;6092960;23;20370;-76
2023/02/08 04:55:52;;;;;;;2.03;1.92;;;-3.90;99.90;;;;;;6094046;23;20397;-76
2023/02/08 04:58:18;;;;;;;2.13;2.03;;;-3.80;99.90;;;;;;6067585;23;20936;-75
2023/02/08 05:00:45;;;;;;;2.00;1.90;;;-3.80;99.90;;;;;;6093756;23;20473;-75
2023/02/08 05:03:13;;;;;;;2.08;1.98;;;-3.80;99.90;;;;;;6092452;23;20448;-75
2023/02/08 05:05:40;;;;;;;2.10;2.00;;;-3.70;99.90;;;;;;6068379;23;20385;-76
2023/02/08 05:08:08;;;;;;;2.00;1.90;;;-3.70;99.90;;;;;;6092883;23;20401;-76
2023/02/08 05:10:34;;;;;;;1.98;1.88;;;-3.70;99.90;;;;;;6093527;23;20774;-75
2023/02/08 05:13:02;;;;;;;1.95;1.85;;;-3.60;99.90;;;;;;6093284;23;20396;-76
2023/02/08 05:15:28;;;;;;;2.10;2.00;;;-3.70;99.90;;;;;;6092385;23;20468;-76
2023/02/08 05:17:55;;;;;;;1.55;1.50;;;-3.70;99.90;;;;;;6068155;23;20408;-76
2023/02/08 05:20:22;;;;;;;2.10;2.00;;;-3.70;99.90;;;;;;6067731;23;20377;-76
2023/02/08 05:22:49;;;;;;;1.90;1.80;;;-3.70;99.90;;;;;;6068566;23;20413;-75
2023/02/08 05:25:16;;;;;;;1.67;1.60;;;-3.70;99.90;;;;;;6066979;23;20385;-76
2023/02/08 05:27:43;;;;;;;2.13;2.03;;;-3.80;99.90;;;;;;6068506;23;20461;-75
2023/02/08 05:30:10;;;;;;;1.67;1.58;;;-3.90;99.90;;;;;;6067410;23;20408;-75
2023/02/08 05:32:37;;;;;;;2.00;1.90;;;-4.00;99.90;;;;;;6093677;23;20373;-75
2023/02/08 05:35:05;;;;;;;2.00;1.90;;;-3.90;99.90;;;;;;6068203;23;20404;-76
2023/02/08 05:37:31;;;;;;;1.90;1.80;;;-4.00;99.90;;;;;;6092317;23;20448;-75
2023/02/08 05:39:58;;;;;;;2.00;1.90;;;-4.00;99.90;;;;;;6068193;23;20437;-76
2023/02/08 05:42:25;;;;;;;1.98;1.88;;;-3.90;99.90;;;;;;6092511;23;20374;-76
2023/02/08 05:44:52;;;;;;;1.40;1.40;;;-3.90;99.90;;;;;;6093230;23;20429;-76
2023/02/08 05:47:19;;;;;;;1.70;1.70;;;-3.90;99.90;;;;;;6067166;23;20378;-76
2023/02/08 05:49:46;;;;;;;1.77;1.67;;;-3.90;99.90;;;;;;6068397;23;20475;-76
2023/02/08 05:52:13;;;;;;;1.85;1.80;;;-4.00;99.90;;;;;;6066881;23;20382;-76
2023/02/08 05:54:40;;;;;;;1.65;1.65;;;-4.00;99.90;;;;;;6068071;23;20369;-74
2023/02/08 05:57:07;;;;;;;1.70;1.60;;;-3.90;99.90;;;;;;6093110;23;20747;-75
2023/02/08 05:59:33;;;;;;;2.00;1.90;;;-3.90;99.90;;;;;;6067390;23;20416;-75
2023/02/08 06:02:00;;;;;;;1.50;1.42;;;-3.90;99.90;;;;;;6067712;23;20768;-77
2023/02/08 06:04:27;;;;;;;1.60;1.50;;;-3.90;99.90;;;;;;6067105;23;20436;-75
2023/02/08 06:06:54;;;;;;;1.20;1.20;;;-3.70;99.90;;;;;;6092858;23;20534;-76
2023/02/08 06:09:21;;;;;;;1.50;1.40;;;-3.60;99.90;;;;;;6092695;23;20412;-76
2023/02/08 06:11:48;;;;;;;1.50;1.50;;;-3.50;99.90;;;;;;6093063;23;20405;-76
2023/02/08 06:14:15;;;;;;;1.38;1.38;;;-3.40;99.90;;;;;;6092583;23;20971;-76
2023/02/08 06:16:42;;;;;;;1.10;1.10;;;-3.30;99.90;;;;;;6093371;23;20861;-76
2023/02/08 06:19:09;;;;;;;1.10;1.10;;;-3.20;99.90;;;;;;6092513;23;20381;-76
2023/02/08 06:21:36;;;;;;;1.02;1.02;;;-2.90;99.90;;;;;;6092112;23;20385;-76
2023/02/08 06:24:05;;;;;;;1.40;1.38;;;-2.70;99.90;;;;;;6067746;23;20378;-76
2023/02/08 06:26:33;;;;;;;1.30;1.30;;;-2.70;99.90;;;;;;6092309;23;20377;-76
2023/02/08 06:29:00;;;;;;;1.50;1.40;;;-2.70;99.90;;;;;;6092425;23;20413;-76
2023/02/08 06:31:27;;;;;;;1.58;1.58;;;-2.80;99.90;;;;;;6067331;23;20432;-76
2023/02/08 06:33:53;;;;;;;1.83;1.73;;;-2.90;99.90;;;;;;6067683;23;20714;-75
2023/02/08 06:36:20;;;;;;;2.13;2.03;;;-3.10;99.90;;;;;;6067211;23;20449;-76
2023/02/08 06:38:47;;;;;;;2.30;2.20;;;-3.30;99.90;;;;;;6067775;23;20374;-76
2023/02/08 06:41:16;;;;;;;2.92;2.83;;;-3.20;99.90;;;;;;6091739;23;20437;-76
2023/02/08 06:43:43;;;;;;;2.40;2.30;;;-3.20;99.90;;;;;;6067229;23;20487;-76
2023/02/08 06:46:10;;;;;;;2.10;2.00;;;-3.10;99.90;;;;;;6066348;23;20385;-76
2023/02/08 06:48:37;;;;;;;2.10;2.00;;;-3.00;99.90;;;;;;6066454;23;20376;-76
2023/02/08 06:51:04;;;;;;;2.07;1.97;;;-3.00;99.90;;;;;;6092505;23;20541;-77
2023/02/08 06:53:31;;;;;;;2.05;1.95;;;-2.90;99.90;;;;;;6091326;23;20389;-76
2023/02/08 06:55:58;;;;;;;2.00;1.90;;;-2.80;99.90;;;;;;6067113;23;20373;-76
2023/02/08 06:58:25;;;;;;;2.20;2.10;;;-2.80;99.90;;;;;;6091870;23;20381;-76
2023/02/08 07:00:52;;;;;;;2.30;2.20;;;-2.70;99.90;;;;;;6067237;23;20424;-76
2023/02/08 07:03:21;;;;;;;1.60;1.30;;;-2.60;99.90;;;;;;6066347;23;20390;-75
2023/02/08 07:05:48;;;;;;;1.13;1.13;;;-2.40;99.90;;;;;;6066995;23;20703;-76
2023/02/08 07:08:31;;;;;;;1.20;1.20;;;-2.10;99.90;;;;;;6091567;23;20416;-76
2023/02/08 07:10:58;;;;;;;1.35;1.25;;;-1.90;99.90;;;;;;6092736;23;20385;-75
2023/02/08 07:13:25;;;;;;;1.30;1.20;;;-1.70;98.60;;;;;;6066005;23;20393;-76
2023/02/08 07:15:52;;;;;;;1.30;1.30;;;-1.60;97.40;;;;;;6067152;23;20416;-76
2023/02/08 07:18:18;;;;;;;1.20;1.20;;;-1.50;97.00;;;;;;6090835;23;20405;-76
2023/02/08 07:20:47;;;;;;;1.27;1.20;;;-1.40;96.10;;;;;;6092120;23;20418;-76
2023/02/08 07:23:14;;;;;;;1.10;1.10;;;-1.30;95.60;;;;;;6090819;23;20409;-75
2023/02/08 07:25:41;;;;;;;1.10;1.10;;;-1.20;94.20;;;;;;6091832;23;20468;-76
2023/02/08 07:28:07;;;;;;;1.23;1.23;;;-1.10;93.10;;;;;;6067244;23;20424;-76
2023/02/08 07:30:35;;;;;;;1.30;1.30;;;-1.00;93.60;;;;;;6066618;23;20373;-76
2023/02/08 07:33:02;;;;;;;1.40;1.30;;;-1.00;95.60;;;;;;6092017;23;20848;-76
2023/02/08 07:35:29;;;;;;;1.30;1.30;;;-1.00;96.80;;;;;;6091243;23;20367;-76
2023/02/08 07:37:56;;;;;;;1.42;1.42;;;-0.90;97.40;;;;;;6067558;23;20382;-77
2023/02/08 07:40:23;;;;;;;1.30;1.20;;;-0.90;97.30;;;;;;6067477;23;20369;-76
2023/02/08 07:42:50;;;;;;;1.40;1.30;;;-0.80;97.70;;;;;;6069766;23;20377;-76
2023/02/08 07:45:17;;;;;;;1.27;1.27;;;-0.70;97.40;;;;;;6093998;23;20396;-76
2023/02/08 07:47:45;;;;;;;1.58;1.58;;;-0.70;97.00;;;;;;6068468;23;20750;-76
2023/02/08 07:50:12;;;;;;;1.40;1.30;;;-0.60;99.90;;;;;;6093151;23;20381;-76
2023/02/08 07:52:41;;;;;;;1.15;1.10;;;-0.60;99.90;;;;;;6091599;23;20377;-76
2023/02/08 07:55:10;;;;;;;0.90;0.90;;;-0.50;99.00;;;;;;6092686;23;20436;-76
2023/02/08 07:57:37;;;;;;;0.90;0.90;;;-0.40;91.80;;;;;;6093242;23;20412;-76
2023/02/08 08:00:04;;;;;;;0.90;0.90;;;-0.20;91.00;;;;;;6093880;23;20436;-76
2023/02/08 08:02:33;;;;;;;0.90;0.90;;;0.00;88.40;;;;;;6091733;23;20853;-76
2023/02/08 08:04:59;;;;;;;1.20;1.20;;;0.10;88.00;;;;;;6093772;23;20456;-76
2023/02/08 08:07:26;;;;;;;1.50;1.40;;;0.10;92.30;;;;;;6093564;23;20401;-76
2023/02/08 08:09:53;;;;;;;1.23;1.23;;;0.20;93.90;;;;;;6067867;23;20386;-76
2023/02/08 08:12:20;;;;;;;1.30;1.30;;;0.10;96.30;;;;;;6068209;23;20508;-76
2023/02/08 08:14:47;;;;;;;0.98;0.98;;;0.20;97.10;;;;;;6068015;23;20390;-77
2023/02/08 08:17:14;;;;;;;0.90;0.90;;;0.40;95.20;;;;;;6093449;23;20388;-76
2023/02/08 08:19:41;;;;;;;0.95;0.95;;;0.70;92.60;;;;;;6067574;23;20412;-77
2023/02/08 08:22:08;;;;;;;1.27;1.00;;;1.00;90.70;;;;;;6068729;23;20750;-76
2023/02/08 08:24:37;;;;;;;0.90;0.90;;;1.30;84.10;;;;;;6093609;23;20385;-76
2023/02/08 08:27:05;;;;;;;0.90;0.88;;;1.50;82.80;;;;;;6068732;23;20378;-76
2023/02/08 08:29:35;;;;;;;0.80;0.80;;;1.80;78.60;;;;;;6092167;23;20381;-76
2023/02/08 08:32:03;;;;;;;0.80;0.80;;;2.00;75.50;;;;;;6068985;23;20758;-76
2023/02/08 08:34:30;;;;;;;0.80;0.80;;;2.30;68.40;;;;;;6093797;23;20436;-76
2023/02/08 08:36:59;;;;;;;0.80;0.80;;;2.60;66.70;;;;;;6094308;23;20397;-77
2023/02/08 08:39:27;;;;;;;0.95;0.88;;;2.80;63.90;;;;;;6068344;23;20382;-77
2023/02/08 08:41:58;;;;;;;0.98;0.98;;;3.00;62.50;;;;;;6094152;23;20405;-76
2023/02/08 08:44:25;;;;;;;0.90;0.90;;;3.20;63.60;;;;;;6093082;23;20549;-77
2023/02/08 08:46:56;;;;;;;0.90;0.90;;;3.40;62.70;;;;;;6068764;23;20365;-76
2023/02/08 08:49:24;;;;;;;0.80;0.80;;;3.50;61.30;;;;;;6094172;23;20440;-77
2023/02/08 08:51:51;;;;;;;0.73;0.73;;;3.70;60.00;;;;;;6092740;23;20741;-76
2023/02/08 08:54:18;;;;;;;0.80;0.80;;;3.80;58.60;;;;;;6068138;23;20392;-77
2023/02/08 08:56:45;;;;;;;0.70;0.70;;;3.90;55.50;;;;;;6067088;23;20459;-75
2023/02/08 08:59:13;;;;;;;0.85;0.85;;;4.10;54.60;;;;;;6068364;23;20421;-76
2023/02/08 09:01:41;;;;;;;0.80;0.80;;;4.10;53.40;;;;;;6067827;23;20818;-76
2023/02/08 09:04:09;;;;;;;0.73;0.70;;;4.20;54.60;;;;;;6093107;23;20395;-77
2023/02/08 09:06:37;;;;;;;0.70;0.70;;;4.30;53.90;;;;;;6092306;23;20409;-76
2023/02/08 09:09:04;;;;;;;0.83;0.83;;;4.40;52.40;;;;;;6068606;23;20378;-77
2023/02/08 09:11:34;;;;;;;0.90;0.90;;;4.30;51.50;;;;;;6089483;23;20377;-75
2023/02/08 09:14:02;;;;;;;0.80;0.80;;;4.30;52.00;;;;;;6093335;23;20978;-77
2023/02/08 09:16:31;;;;;;;0.80;0.80;;;4.30;52.00;;;;;;6091084;23;20464;-78
2023/02/08 09:19:06;;;;;;;0.80;0.80;;;4.40;52.90;;;;;;6045288;23;20408;-77
2023/02/08 09:21:33;;;;;;;0.90;0.90;;;4.40;52.90;;;;;;6054922;23;20761;-77
2023/02/08 09:24:00;;;;;;;0.93;0.93;;;4.50;52.40;;;;;;6092871;23;20390;-78
2023/02/08 09:26:27;;;;;;;1.20;1.10;;;4.50;51.60;;;;;;6068054;23;20397;-77
2023/02/08 09:28:54;;;;;;;1.10;1.00;;;4.60;50.80;;;;;;6093041;23;20449;-77
2023/02/08 09:31:25;;;;;;;0.73;0.73;;;4.60;51.10;;;;;;6092972;23;20385;-77
2023/02/08 09:33:54;;;;;;;0.85;0.85;;;4.60;51.10;;;;;;6067296;23;20881;-77
2023/02/08 09:36:23;;;;;;;0.80;0.80;;;4.70;51.30;;;;;;6092732;23;20710;-77
2023/02/08 09:38:59;;;;;;;0.85;0.85;;;4.80;50.10;;;;;;6067191;23;20408;-77
2023/02/08 09:42:09;;;;;;;0.70;0.70;;;4.90;50.20;;;;;;6067909;23;20924;-76
2023/02/08 09:44:39;;;;;;;0.80;0.80;;;5.00;49.20;;;;;;6067641;23;20397;-77
2023/02/08 09:47:10;;;;;;;0.90;0.70;;;5.10;47.90;;;;;;6068814;23;20401;-77
2023/02/08 09:49:43;;;;;;;0.70;0.70;;;5.10;48.70;;;;;;6067497;23;20408;-77
2023/02/08 09:52:17;;;;;;;0.80;0.80;;;5.10;48.30;;;;;;6093474;23;20381;-77
2023/02/08 09:54:52;;;;;;;0.60;0.60;;;5.30;48.70;;;;;;6067595;23;20417;-77
2023/02/08 09:57:24;;;;;;;0.85;0.85;;;5.40;48.10;;;;;;6093722;23;20706;-77
2023/02/08 10:00:03;;;;;;;1.17;1.17;;;5.50;48.00;;;;;;6066112;23;20759;-77
2023/02/08 10:02:33;;;;;;;0.60;0.60;;;5.60;47.90;;;;;;6066540;23;20718;-77
2023/02/08 10:05:11;;;;;;;0.80;0.80;;;5.80;47.50;;;;;;6091042;23;20389;-77
2023/02/08 10:07:39;;;;;;;0.70;0.70;;;5.90;46.60;;;;;;6066738;23;20452;-77
2023/02/08 10:10:14;;;;;;;0.68;0.68;;;5.90;47.20;;;;;;6067848;23;20405;-77
2023/02/08 10:12:59;;;;;;;0.70;0.70;;;6.00;46.60;;;;;;6064779;23;20413;-77
2023/02/08 10:15:41;;;;;;;0.80;0.80;;;6.10;46.30;;;;;;6067531;23;20381;-77
2023/02/08 10:18:32;;;;;;;0.70;0.70;;;6.10;46.50;;;;;;6088144;23;20444;-77
2023/02/08 10:21:36;;;;;;;1.10;1.00;;;6.30;46.90;;;;;;6063976;23;20479;-76
2023/02/08 10:24:03;;;;;;;0.80;0.80;;;6.30;46.80;;;;;;6054207;23;20378;-76
2023/02/08 10:26:42;;;;;;;0.77;0.77;;;6.30;47.10;;;;;;6093004;23;20394;-77
2023/02/08 10:29:28;;;;;;;0.80;0.80;;;6.30;46.40;;;;;;6091157;23;20429;-77
2023/02/08 10:32:06;;;;;;;0.90;0.90;;;6.20;46.00;;;;;;6090069;23;20389;-77
2023/02/08 10:34:53;;;;;;;0.85;0.85;;;6.30;46.90;;;;;;6067927;23;20384;-77
2023/02/08 10:37:36;;;;;;;1.00;0.80;;;6.30;46.50;;;;;;6066757;23;20377;-77
2023/02/08 10:40:17;;;;;;;1.00;1.00;;;6.30;46.10;;;;;;6089972;23;20449;-77
2023/02/08 10:43:08;;;;;;;0.90;0.90;;;6.30;46.10;;;;;;6067249;23;20884;-78
2023/02/08 10:45:50;;;;;;;1.00;1.00;;;6.40;46.70;;;;;;6065875;23;20890;-76
2023/02/08 10:48:33;;;;;;;1.00;1.00;;;6.20;46.10;;;;;;6092296;23;20850;-74
2023/02/08 10:51:00;;;;;;;0.88;0.88;;;6.30;47.10;;;;;;6093569;23;20405;-77
2023/02/08 10:53:27;;;;;;;0.98;0.93;;;6.30;46.60;;;;;;6092150;23;20436;-76
2023/02/08 10:55:54;;;;;;;0.95;0.90;;;6.50;46.90;;;;;;6091603;23;20400;-76
2023/02/08 10:58:27;;;;;;;0.75;0.75;;;6.60;46.30;;;;;;6091685;23;20389;-76
2023/02/08 11:00:56;;;;;;;0.90;0.90;;;6.70;46.00;;;;;;6067415;23;20699;-77
2023/02/08 11:03:28;;;;;;;0.90;0.90;;;6.80;45.80;;;;;;6066900;23;20382;-77
2023/02/08 11:05:55;;;;;;;0.90;0.90;;;6.90;46.40;;;;;;6092851;23;20415;-77
2023/02/08 11:08:24;;;;;;;0.90;0.90;;;7.00;46.40;;;;;;6066943;23;20378;-77
2023/02/08 11:10:54;;;;;;;0.90;0.90;;;6.70;46.30;;;;;;6093388;23;20440;-77
2023/02/08 11:13:21;;;;;;;1.10;1.10;;;6.50;48.40;;;;;;6066583;23;20428;-77
2023/02/08 11:15:55;;;;;;;1.17;1.10;;;6.60;47.50;;;;;;6092047;23;20396;-77
2023/02/08 11:18:32;;;;;;;1.00;1.00;;;6.80;47.30;;;;;;6066616;23;20385;-77
2023/02/08 11:21:09;;;;;;;1.00;1.00;;;6.50;47.80;;;;;;6090707;23;20385;-78
2023/02/08 11:23:41;;;;;;;1.00;1.00;;;6.40;47.30;;;;;;6042660;23;20377;-76
2023/02/08 11:26:30;;;;;;;1.20;1.20;;;6.50;47.80;;;;;;6091029;23;20698;-77
2023/02/08 11:29:25;;;;;;;1.10;1.10;;;6.70;47.70;;;;;;6090176;23;20786;-77
2023/02/08 11:32:03;;;;;;;1.13;1.00;;;7.00;49.30;;;;;;6067076;23;20424;-77
2023/02/08 11:34:33;;;;;;;0.93;0.93;;;6.80;45.50;;;;;;6091492;23;20706;-77
2023/02/08 11:37:27;;;;;;;1.00;1.00;;;6.80;44.80;;;;;;6066217;23;20711;-77
2023/02/08 11:39:59;;;;;;;1.13;1.13;;;6.30;44.40;;;;;;6066576;23;20716;-77
2023/02/08 11:42:34;;;;;;;1.17;1.17;;;6.60;45.10;;;;;;6067183;23;20473;-77
2023/02/08 11:45:03;;;;;;;1.00;1.00;;;6.50;43.90;;;;;;6092112;23;20381;-77
2023/02/08 11:47:36;;;;;;;1.35;1.08;;;6.30;43.30;;;;;;6067120;23;20377;-78
2023/02/08 11:50:07;;;;;;;1.30;1.30;;;6.60;44.40;;;;;;6090117;23;20818;-77
2023/02/08 11:52:41;;;;;;;1.65;1.55;;;6.90;43.20;;;;;;6067828;23;20384;-77
2023/02/08 11:55:24;;;;;;;1.77;1.67;;;6.70;43.90;;;;;;6067147;23;20706;-77
2023/02/08 11:57:59;;;;;;;1.17;1.17;;;6.60;43.50;;;;;;6091129;23;20381;-77
2023/02/08 12:00:37;;;;;;;1.15;1.10;;;6.90;43.90;;;;;;6066632;23;20862;-77
2023/02/08 12:03:17;;;;;;;1.00;1.00;;;6.70;43.10;;;;;;6091157;23;20381;-77
2023/02/08 12:06:10;;;;;;;0.90;0.90;;;6.90;43.70;;;;;;6091510;23;20404;-77
2023/02/08 12:08:51;;;;;;;1.20;1.00;;;7.10;41.80;;;;;;6091000;23;20926;-75
2023/02/08 12:11:41;;;;;;;0.80;0.80;;;7.30;41.50;;;;;;6092344;23;20454;-76
2023/02/08 12:14:38;;;;;;;0.80;0.80;;;6.70;39.90;;;;;;6066393;23;20382;-77
2023/02/08 12:17:35;;;;;;;0.70;0.70;;;6.70;39.60;;;;;;6065910;23;20382;-77
2023/02/08 12:20:55;;;;;;;0.90;0.90;;;7.00;40.70;;;;;;6089785;23;20393;-78
2023/02/08 12:23:34;;;;;;;0.70;0.70;;;7.40;40.30;;;;;;5923740;24;20862;-78
2023/02/08 12:26:22;;;;;;;0.77;0.77;;;7.30;38.10;;;;;;6075143;23;20382;-78
2023/02/08 12:29:12;;;;;;;0.80;0.80;;;6.80;38.90;;;;;;6092771;23;20378;-78
2023/02/08 12:31:53;;;;;;;0.70;0.70;;;7.00;39.70;;;;;;6091623;23;20382;-78
2023/02/08 12:34:48;;;;;;;0.90;0.90;;;7.30;40.30;;;;;;6093093;23;20380;-75
2023/02/08 12:43:47;;;;;;;1.00;0.90;;;7.10;39.50;;;;;;6094565;23;20763;-78
2023/02/08 12:46:26;;;;;;;0.60;0.60;;;7.30;38.20;;;;;;6092673;23;20400;-78
2023/02/08 12:49:18;;;;;;;0.70;0.70;;;7.80;37.30;;;;;;6067990;23;20388;-78
2023/02/08 12:51:48;;;;;;;1.17;1.17;;;7.90;36.70;;;;;;6092969;23;20382;-78
2023/02/08 12:54:26;;;;;;;1.10;1.10;;;6.90;37.90;;;;;;6093798;23;20843;-78
2023/02/08 12:56:55;;;;;;;1.20;1.10;;;7.20;38.30;;;;;;6068202;23;20754;-78
2023/02/08 12:59:39;;;;;;;1.02;1.02;;;7.20;37.50;;;;;;6094378;23;20386;-78
2023/02/08 13:02:43;;;;;;;0.70;0.70;;;7.10;37.20;;;;;;6067999;23;20440;-78
2023/02/08 13:05:19;;;;;;;0.80;0.70;;;7.00;36.70;;;;;;6053586;23;20842;-78
2023/02/08 13:07:49;;;;;;;0.60;0.60;;;7.00;36.50;;;;;;6093073;23;20853;-78
2023/02/08 13:10:35;;;;;;;0.60;0.60;;;7.10;37.20;;;;;;6091376;23;20412;-75
2023/02/08 13:13:25;;;;;;;0.70;0.70;;;7.10;36.70;;;;;;6093169;23;20734;-75
2023/02/08 13:16:08;;;;;;;0.70;0.70;;;7.60;37.40;;;;;;6093705;23;20382;-78
2023/02/08 13:18:48;;;;;;;0.63;0.63;;;8.10;36.50;;;;;;6068217;23;20365;-77
2023/02/08 13:21:29;;;;;;;0.80;0.80;;;8.50;35.50;;;;;;6067967;23;20377;-78
2023/02/08 13:23:57;;;;;;;0.60;0.60;;;8.30;34.80;;;;;;6069021;23;20447;-78
2023/02/08 13:26:33;;;;;;;0.70;0.70;;;8.00;35.50;;;;;;6067707;23;20390;-78
2023/02/08 13:29:02;;;;;;;0.80;0.80;;;8.40;36.10;;;;;;6068551;23;20382;-75
2023/02/08 13:31:38;;;;;;;0.60;0.60;;;8.40;35.00;;;;;;6093095;23;20850;-78
2023/02/08 13:34:30;;;;;;;0.73;0.55;;;8.80;34.70;;;;;;6068790;23;20377;-75
2023/02/08 13:37:01;;;;;;;0.60;0.60;;;8.40;35.00;;;;;;6091514;23;20750;-78
2023/02/08 13:39:28;;;;;;;0.60;0.60;;;8.90;34.00;;;;;;6068790;23;20428;-78
2023/02/08 13:41:56;;;;;;;1.10;0.60;;;8.90;33.50;;;;;;6068109;23;20374;-77
2023/02/08 13:44:35;;;;;;;0.60;0.60;;;8.80;33.30;;;;;;6068911;23;20430;-76
2023/02/08 13:47:04;;;;;;;0.63;0.63;;;8.50;34.50;;;;;;6067431;23;20373;-75
2023/02/08 13:49:50;;;;;;;0.50;0.50;;;8.60;34.70;;;;;;6068444;23;20381;-75
2023/02/08 13:52:32;;;;;;;0.70;0.70;;;8.80;34.10;;;;;;6090914;23;20381;-75
2023/02/08 13:55:32;;;;;;;0.60;0.60;;;9.10;33.90;;;;;;6070132;23;20397;-75
2023/02/08 13:58:27;;;;;;;0.60;0.60;;;9.10;32.30;;;;;;6053598;23;20381;-77
2023/02/08 14:00:55;;;;;;;0.60;0.60;;;9.00;32.40;;;;;;6083157;23;20377;-78
2023/02/08 14:03:27;;;;;;;0.60;0.60;;;9.10;32.50;;;;;;6092446;23;20377;-77
2023/02/08 14:06:01;;;;;;;0.67;0.67;;;9.00;32.40;;;;;;6068265;23;20397;-77
2023/02/08 14:08:40;;;;;;;0.57;0.57;;;8.90;32.40;;;;;;6092883;23;20400;-78
2023/02/08 14:11:44;;;;;;;0.60;0.60;;;9.10;32.40;;;;;;6067623;23;20382;-77
2023/02/08 14:14:33;;;;;;;0.60;0.60;;;9.00;32.00;;;;;;6092813;23;20397;-77
2023/02/08 14:17:06;;;;;;;0.60;0.60;;;9.10;32.50;;;;;;6093609;23;20750;-78
2023/02/08 14:19:35;;;;;;;0.70;0.70;;;8.90;32.40;;;;;;6067677;23;20378;-77
2023/02/08 14:22:10;;;;;;;0.90;0.90;;;8.80;32.80;;;;;;6093092;23;20404;-77
2023/02/08 14:24:40;;;;;;;0.77;0.73;;;8.70;33.10;;;;;;6068088;23;20403;-77
2023/02/08 14:27:28;;;;;;;0.60;0.60;;;8.50;33.50;;;;;;6066324;23;20393;-78
2023/02/08 14:29:55;;;;;;;1.20;1.10;;;8.40;33.40;;;;;;6067607;23;20440;-78
2023/02/08 14:32:24;;;;;;;0.70;0.70;;;8.30;33.80;;;;;;6067981;23;20459;-77
2023/02/08 14:35:07;;;;;;;0.60;0.60;;;8.40;33.30;;;;;;6090827;23;20543;-78
2023/02/08 14:37:36;;;;;;;0.70;0.70;;;8.40;34.20;;;;;;6067503;23;20377;-76
2023/02/08 14:40:21;;;;;;;1.77;1.67;;;8.40;34.50;;;;;;6093382;23;20380;-77
2023/02/08 14:43:03;;;;;;;0.70;0.70;;;7.90;34.70;;;;;;6092321;23;20861;-78
2023/02/08 14:45:36;;;;;;;1.42;1.40;;;7.60;34.30;;;;;;6092784;23;20389;-77
2023/02/08 14:48:08;;;;;;;0.70;0.70;;;7.40;35.30;;;;;;6092626;23;21228;-78
2023/02/08 14:50:39;;;;;;;0.77;0.77;;;7.10;36.30;;;;;;6093157;23;20830;-77
2023/02/08 14:53:12;;;;;;;1.07;1.07;;;6.80;36.20;;;;;;6067730;23;20413;-77
2023/02/08 14:55:48;;;;;;;0.95;0.95;;;6.90;37.40;;;;;;6068034;23;20382;-78
2023/02/08 14:58:25;;;;;;;1.02;0.93;;;6.80;37.90;;;;;;6092511;23;20704;-78
2023/02/08 15:00:53;;;;;;;1.00;0.90;;;6.80;39.10;;;;;;6066825;23;20440;-78
2023/02/08 15:03:21;;;;;;;1.65;1.40;;;6.60;38.20;;;;;;6091708;23;20429;-77
2023/02/08 15:06:17;;;;;;;1.90;1.67;;;6.60;38.90;;;;;;6067797;23;20460;-77
2023/02/08 15:08:52;;;;;;;1.55;1.45;;;6.80;39.30;;;;;;6066160;23;20381;-77
2023/02/08 15:11:25;;;;;;;1.17;1.00;;;6.90;40.00;;;;;;6092439;23;20437;-77
2023/02/08 15:13:54;;;;;;;1.20;1.20;;;6.90;40.20;;;;;;6092681;23;20377;-78
2023/02/08 15:16:32;;;;;;;1.00;1.00;;;6.90;40.80;;;;;;6092109;23;20374;-77
2023/02/08 15:19:01;;;;;;;1.00;0.90;;;6.80;40.80;;;;;;6092831;23;20374;-78
2023/02/08 15:21:31;;;;;;;0.88;0.88;;;6.90;41.50;;;;;;6067125;23;20861;-78
2023/02/08 15:24:02;;;;;;;1.15;0.82;;;6.50;40.60;;;;;;6067999;23;20429;-77
2023/02/08 15:26:31;;;;;;;1.13;1.13;;;6.10;41.60;;;;;;6091875;23;20460;-77
2023/02/08 15:28:59;;;;;;;1.20;1.00;;;5.90;42.00;;;;;;6067621;23;20385;-78
2023/02/08 15:31:31;;;;;;;0.80;0.80;;;6.00;42.40;;;;;;6067152;23;20872;-77
2023/02/08 15:34:00;;;;;;;0.90;0.90;;;6.00;41.60;;;;;;6092908;23;20381;-77
2023/02/08 15:36:31;;;;;;;0.98;0.98;;;5.90;42.20;;;;;;6066537;23;20401;-77
2023/02/08 15:39:08;;;;;;;0.95;0.95;;;5.90;42.00;;;;;;6093475;23;20373;-77